This is the latest recevied weather packets stored in our database for station/object SV2RCS-13. If no packets are shown the sender has not sent any weather packets the latest 10 day(s).
| Time | Temp. | Humidity | Pressure | Rain* | Wind** | Luminosity | Snow |
|---|---|---|---|---|---|---|---|
| 1777619818 | 10.56° C | 37% | 1020.3 hPa | - | - | - | - |
| 1777619218 | 10.56° C | 38% | 1020.2 hPa | - | - | - | - |
| 1777618623 | 10.56° C | 38% | 1020.4 hPa | - | - | - | - |
| 1777618018 | 10.56° C | 38% | 1020.1 hPa | - | - | - | - |
| 1777617418 | 10.56° C | 37% | 1020.2 hPa | - | - | - | - |
| 1777616818 | 10° C | 37% | 1020.3 hPa | - | - | - | - |
| 1777616218 | 10° C | 38% | 1020.2 hPa | - | - | - | - |
| 1777615618 | 10° C | 38% | 1020.3 hPa | - | - | - | - |
| 1777615018 | 10° C | 38% | 1020.2 hPa | - | - | - | - |
| 1777614418 | 9.44° C | 39% | 1020.3 hPa | - | - | - | - |
| 1777613818 | 10.56° C | 36% | 1020.1 hPa | - | - | - | - |
| 1777613218 | 9.44° C | 37% | 1020.4 hPa | - | - | - | - |
| 1777612618 | 8.89° C | 40% | 1020.4 hPa | - | - | - | - |
| 1777612018 | 8.89° C | 41% | 1020.4 hPa | - | - | - | - |
| 1777611419 | 8.89° C | 42% | 1020.3 hPa | - | - | - | - |
| 1777610818 | 8.33° C | 41% | 1020.5 hPa | - | - | - | - |
| 1777610218 | 8.89° C | 41% | 1020.4 hPa | - | - | - | - |
| 1777609618 | 8.89° C | 42% | 1020.3 hPa | - | - | - | - |
| 1777609017 | 8.89° C | 42% | 1020.3 hPa | - | - | - | - |
| 1777608418 | 8.89° C | 41% | 1020.3 hPa | - | - | - | - |
| 1777607818 | 8.89° C | 42% | 1020.2 hPa | - | - | - | - |
| 1777607218 | 8.89° C | 41% | 1020.2 hPa | - | - | - | - |
| 1777606618 | 8.89° C | 41% | 1020 hPa | - | - | - | - |
| 1777606020 | 8.89° C | 41% | 1020.1 hPa | - | - | - | - |
| 1777605419 | 8.89° C | 41% | 1020.1 hPa | - | - | - | - |
* Rain since midnight (hover to see other rain measurements)
** Current wind speed in m/s (hover to see current wind gust speed)